Time;durP1;ratioP1;P1;durP2;ratioP2;P2;SDS_P1;SDS_P2;PMS_P1;PMS_P2;Temp;Humidity;BMP_temperature;BMP_pressure;BME280_temperature;BME280_humidity;BME280_pressure;Samples;Min_cycle;Max_cycle;Signal;HPM_P1;HPM_P2
2023/04/12 00:01:25;;;;;;;;;;;;;;;7.22;68.56;99821.23;216210;1251;61337;-72
2023/04/12 00:06:17;;;;;;;;;;;;;;;7.29;68.89;99818.23;216288;1255;61285;-72
2023/04/12 00:11:10;;;;;;;;;;;;;;;7.34;69.23;99790.57;216185;1251;125101;-72
2023/04/12 00:16:03;;;;;;;;;;;;;;;7.37;69.51;99790.28;216247;1251;61888;-72
2023/04/12 00:20:56;;;;;;;;;;;;;;;7.33;69.84;99795.73;216286;1251;61224;-71
2023/04/12 00:25:49;;;;;;;;;;;;;;;7.24;69.95;99780.08;216311;1251;61243;-72
2023/04/12 00:30:42;;;;;;;;;;;;;;;7.15;69.98;99777.19;216275;1255;61357;-72
2023/04/12 00:35:35;;;;;;;;;;;;;;;7.07;70.45;99778.09;216278;1251;74534;-72
2023/04/12 00:40:28;;;;;;;;;;;;;;;6.95;70.35;99785.30;216299;1251;61340;-71
2023/04/12 00:45:21;;;;;;;;;;;;;;;6.86;70.70;99787.20;216303;1255;61352;-72
2023/04/12 00:50:14;;;;;;;;;;;;;;;6.74;70.56;99784.95;216450;1255;61242;-72
2023/04/12 00:55:08;;;;;;;;;;;;;;;6.66;70.91;99791.34;216267;1253;61209;-72
2023/04/12 01:00:01;;;;;;;;;;;;;;;6.63;70.84;99792.50;216286;1251;75555;-72
2023/04/12 01:04:57;;;;;;;;;;;;;;;6.57;71.02;99796.52;216274;1251;72760;-73
2023/04/12 01:09:51;;;;;;;;;;;;;;;6.52;71.25;99798.33;216223;1253;61227;-72
2023/04/12 01:14:57;;;;;;;;;;;;;;;6.50;71.38;99789.68;216359;1251;67035;-72
2023/04/12 01:20:12;;;;;;;;;;;;;;;6.44;71.25;99788.88;216300;1251;61341;-72
2023/04/12 01:25:08;;;;;;;;;;;;;;;6.38;71.37;99790.14;216080;1252;72780;-73
2023/04/12 01:30:03;;;;;;;;;;;;;;;6.32;71.49;99792.43;216259;1253;73267;-72
2023/04/12 01:34:57;;;;;;;;;;;;;;;6.33;71.87;99796.41;216393;1250;61368;-72
2023/04/12 01:39:51;;;;;;;;;;;;;;;6.43;72.50;99793.51;216218;1251;67396;-72
2023/04/12 01:44:43;;;;;;;;;;;;;;;6.57;73.20;99793.23;216244;1255;61344;-72
2023/04/12 01:49:43;;;;;;;;;;;;;;;6.75;73.76;99789.27;216314;1251;61247;-72
2023/04/12 01:54:38;;;;;;;;;;;;;;;6.86;73.71;99784.63;216226;1255;71175;-72
2023/04/12 01:59:41;;;;;;;;;;;;;;;6.94;73.75;99779.08;216288;1251;61354;-72
2023/04/12 02:04:35;;;;;;;;;;;;;;;7.00;74.07;99775.73;216265;1251;66808;-72
2023/04/12 02:09:28;;;;;;;;;;;;;;;7.09;74.36;99789.15;216302;1251;61235;-73
2023/04/12 02:14:20;;;;;;;;;;;;;;;7.18;74.32;99795.33;216346;1251;62131;-71
2023/04/12 02:19:13;;;;;;;;;;;;;;;7.19;73.94;99795.69;216289;1255;61321;-72
2023/04/12 02:24:07;;;;;;;;;;;;;;;7.22;74.45;99794.52;216201;1251;61202;-72
2023/04/12 02:28:59;;;;;;;;;;;;;;;7.31;74.80;99794.31;216293;1251;61250;-72
2023/04/12 02:33:52;;;;;;;;;;;;;;;7.39;74.72;99792.89;216285;1253;61368;-72
2023/04/12 02:38:49;;;;;;;;;;;;;;;7.45;75.11;99787.13;216330;1251;61672;-72
2023/04/12 02:43:42;;;;;;;;;;;;;;;7.49;75.01;99786.98;216349;1251;72733;-72
2023/04/12 02:48:35;;;;;;;;;;;;;;;7.52;75.18;99783.42;216253;1251;61243;-71
2023/04/12 02:53:29;;;;;;;;;;;;;;;7.55;75.14;99789.15;216331;1251;65778;-72
2023/04/12 02:58:36;;;;;;;;;;;;;;;7.58;75.34;99793.19;216279;1251;61229;-72
2023/04/12 03:03:30;;;;;;;;;;;;;;;7.61;75.42;99797.02;216374;1252;73078;-72
2023/04/12 03:08:29;;;;;;;;;;;;;;;7.64;75.52;99795.49;216186;1251;71462;-72
2023/04/12 03:13:23;;;;;;;;;;;;;;;7.67;75.53;99793.46;216324;1255;61304;-72
2023/04/12 03:18:19;;;;;;;;;;;;;;;7.69;75.60;99794.87;216156;1252;67231;-72
2023/04/12 03:23:14;;;;;;;;;;;;;;;7.70;75.69;99797.65;216243;1255;61337;-72
2023/04/12 03:28:10;;;;;;;;;;;;;;;7.71;75.72;99796.77;216303;1251;74952;-72
2023/04/12 03:33:14;;;;;;;;;;;;;;;7.72;75.69;99797.15;216028;1253;71864;-72
2023/04/12 03:38:08;;;;;;;;;;;;;;;7.73;75.85;99804.77;216195;1251;61825;-72
2023/04/12 03:43:02;;;;;;;;;;;;;;;7.74;75.96;99805.29;216358;1251;68566;-72
2023/04/12 03:47:55;;;;;;;;;;;;;;;7.76;76.08;99807.23;216271;1255;61221;-72
2023/04/12 03:52:49;;;;;;;;;;;;;;;7.77;76.13;99806.02;216309;1251;73574;-72
2023/04/12 03:57:42;;;;;;;;;;;;;;;7.76;76.14;99808.59;216264;1253;71524;-72
2023/04/12 04:02:36;;;;;;;;;;;;;;;7.76;76.28;99810.48;216249;1251;61387;-72
2023/04/12 04:07:30;;;;;;;;;;;;;;;7.77;76.37;99808.27;216273;1251;67574;-72
2023/04/12 04:12:23;;;;;;;;;;;;;;;7.79;76.30;99814.15;216154;1251;61315;-72
2023/04/12 04:17:18;;;;;;;;;;;;;;;7.79;76.25;99817.95;216249;1251;75469;-72
2023/04/12 04:22:12;;;;;;;;;;;;;;;7.80;76.50;99818.48;216272;1252;71224;-71
2023/04/12 04:27:06;;;;;;;;;;;;;;;7.80;76.44;99812.80;216239;1255;61263;-72
2023/04/12 04:31:59;;;;;;;;;;;;;;;7.83;76.54;99819.91;216207;1251;61343;-73
2023/04/12 04:36:52;;;;;;;;;;;;;;;7.87;76.80;99823.41;216255;1251;61212;-72
2023/04/12 04:41:53;;;;;;;;;;;;;;;7.88;76.86;99824.98;216150;1251;73674;-73
2023/04/12 04:47:05;;;;;;;;;;;;;;;7.94;76.97;99830.94;216208;1251;72836;-72
2023/04/12 04:52:02;;;;;;;;;;;;;;;8.01;76.96;99832.58;216179;1253;70995;-72
2023/04/12 04:56:57;;;;;;;;;;;;;;;8.07;76.99;99838.34;216232;1251;70363;-72
2023/04/12 05:01:51;;;;;;;;;;;;;;;8.12;76.82;99844.28;216277;1251;61273;-72
2023/04/12 05:06:46;;;;;;;;;;;;;;;8.19;76.76;99841.77;216294;1251;74608;-72
2023/04/12 05:11:40;;;;;;;;;;;;;;;8.26;76.66;99839.96;216302;1251;72430;-72
2023/04/12 05:16:34;;;;;;;;;;;;;;;8.34;76.92;99841.44;216149;1251;61302;-73
2023/04/12 05:21:28;;;;;;;;;;;;;;;8.57;76.50;99841.39;215876;1253;61248;-72
2023/04/12 05:26:21;;;;;;;;;;;;;;;8.73;76.69;99844.16;216030;1251;61225;-72
2023/04/12 05:31:15;;;;;;;;;;;;;;;8.82;76.15;99842.87;215859;1250;74861;-72
2023/04/12 05:36:10;;;;;;;;;;;;;;;9.01;75.77;99843.23;216010;1251;61349;-72
2023/04/12 05:41:03;;;;;;;;;;;;;;;9.21;75.37;99845.13;216174;1251;61286;-73
2023/04/12 05:45:57;;;;;;;;;;;;;;;9.29;75.10;99842.77;216214;1252;67675;-72
2023/04/12 05:50:50;;;;;;;;;;;;;;;9.51;74.81;99834.81;216108;1251;61788;-72
2023/04/12 05:55:43;;;;;;;;;;;;;;;9.84;74.12;99825.86;215990;1251;75447;-74
2023/04/12 06:00:36;;;;;;;;;;;;;;;9.88;73.90;99828.14;215970;1251;72467;-73
2023/04/12 06:05:29;;;;;;;;;;;;;;;9.91;73.99;99835.58;216121;1251;61347;-74
2023/04/12 06:10:22;;;;;;;;;;;;;;;9.90;73.61;99834.20;216123;1251;61710;-73
2023/04/12 06:15:18;;;;;;;;;;;;;;;9.86;73.58;99839.71;216079;1251;61337;-72
2023/04/12 06:20:15;;;;;;;;;;;;;;;9.78;73.19;99843.13;216193;1251;75691;-73
2023/04/12 06:25:08;;;;;;;;;;;;;;;9.78;73.44;99841.73;216106;1253;61279;-72
2023/04/12 06:30:01;;;;;;;;;;;;;;;9.81;73.37;99842.64;215971;1253;61260;-72
2023/04/12 06:34:57;;;;;;;;;;;;;;;9.83;73.23;99844.71;216063;1252;65449;-72
2023/04/12 06:39:51;;;;;;;;;;;;;;;9.83;73.32;99844.02;215995;1255;61270;-72
2023/04/12 06:44:44;;;;;;;;;;;;;;;9.83;72.82;99846.80;216058;1251;74713;-71
2023/04/12 06:49:38;;;;;;;;;;;;;;;9.95;72.81;99845.66;216136;1253;61362;-71
2023/04/12 06:54:30;;;;;;;;;;;;;;;10.10;72.83;99851.27;216029;1251;61242;-72
2023/04/12 06:59:23;;;;;;;;;;;;;;;10.16;72.31;99852.52;216044;1253;61333;-72
2023/04/12 07:04:16;;;;;;;;;;;;;;;10.21;72.21;99850.63;216030;1253;61239;-74
2023/04/12 07:09:10;;;;;;;;;;;;;;;10.32;72.12;99852.42;216105;1253;61423;-73
2023/04/12 07:14:02;;;;;;;;;;;;;;;10.48;71.89;99854.92;216133;1251;73010;-73
2023/04/12 07:18:55;;;;;;;;;;;;;;;10.74;71.65;99855.35;216106;1251;61276;-73
2023/04/12 07:23:50;;;;;;;;;;;;;;;11.11;70.53;99852.13;216025;1251;65670;-73
2023/04/12 07:28:43;;;;;;;;;;;;;;;11.22;70.23;99851.61;216054;1255;61416;-73
2023/04/12 07:33:39;;;;;;;;;;;;;;;11.03;70.25;99854.02;216260;1251;72571;-73
2023/04/12 07:38:36;;;;;;;;;;;;;;;10.95;70.54;99850.71;216149;1251;72360;-73
2023/04/12 07:43:33;;;;;;;;;;;;;;;10.89;70.29;99852.61;216216;1253;61847;-73
2023/04/12 07:48:27;;;;;;;;;;;;;;;10.84;70.27;99857.28;216119;1251;67610;-72
2023/04/12 07:53:24;;;;;;;;;;;;;;;10.82;70.37;99860.75;216029;1251;61245;-72
2023/04/12 07:58:17;;;;;;;;;;;;;;;10.76;70.35;99855.37;216086;1251;74382;-72
2023/04/12 08:03:11;;;;;;;;;;;;;;;10.79;70.04;99857.79;215762;1253;72555;-72
2023/04/12 08:08:05;;;;;;;;;;;;;;;10.96;69.99;99862.34;215979;1251;61329;-73
2023/04/12 08:12:58;;;;;;;;;;;;;;;10.77;69.55;99885.00;215941;1251;65375;-73
2023/04/12 08:17:51;;;;;;;;;;;;;;;10.59;69.76;99888.24;216069;1252;61260;-73
2023/04/12 08:22:45;;;;;;;;;;;;;;;10.47;69.79;99884.03;216168;1251;61307;-73
2023/04/12 08:27:42;;;;;;;;;;;;;;;10.34;69.72;99875.31;215955;1255;73631;-73
2023/04/12 08:32:36;;;;;;;;;;;;;;;10.37;70.12;99859.56;215966;1252;61209;-73
2023/04/12 08:37:30;;;;;;;;;;;;;;;10.63;70.24;99848.91;215968;1251;68305;-71
2023/04/12 08:42:23;;;;;;;;;;;;;;;10.96;70.12;99839.27;215913;1251;61235;-73
2023/04/12 08:47:16;;;;;;;;;;;;;;;11.32;69.73;99839.30;215967;1251;61409;-71
2023/04/12 08:52:10;;;;;;;;;;;;;;;11.65;69.00;99839.80;215913;1251;61295;-72
2023/04/12 08:57:05;;;;;;;;;;;;;;;11.80;68.74;99840.98;216077;1251;61375;-72
2023/04/12 09:01:58;;;;;;;;;;;;;;;11.81;68.40;99847.23;216052;1251;67276;-72
2023/04/12 09:06:51;;;;;;;;;;;;;;;11.85;68.39;99842.20;216114;1255;61368;-73
2023/04/12 09:11:44;;;;;;;;;;;;;;;12.06;67.91;99847.20;215983;1254;61243;-74
2023/04/12 09:16:39;;;;;;;;;;;;;;;12.40;67.27;99842.03;215959;1251;61235;-73
2023/04/12 09:21:33;;;;;;;;;;;;;;;13.01;66.60;99843.42;216063;1252;61234;-74
2023/04/12 09:26:30;;;;;;;;;;;;;;;13.94;65.18;99828.70;216073;1251;67706;-73
2023/04/12 09:31:23;;;;;;;;;;;;;;;14.64;64.16;99826.65;216027;1253;73286;-72
2023/04/12 09:36:17;;;;;;;;;;;;;;;14.66;63.53;99829.26;215971;1255;61209;-74
2023/04/12 09:41:22;;;;;;;;;;;;;;;14.95;62.11;99826.36;216067;1250;71014;-73
2023/04/12 09:46:18;;;;;;;;;;;;;;;15.99;60.19;99824.45;216008;1253;61366;-73
2023/04/12 09:51:12;;;;;;;;;;;;;;;15.95;59.10;99827.48;216060;1253;61339;-73
2023/04/12 09:56:07;;;;;;;;;;;;;;;15.77;59.10;99830.63;216062;1253;61420;-72
2023/04/12 10:01:02;;;;;;;;;;;;;;;15.65;59.62;99832.21;215961;1255;74477;-72
2023/04/12 10:05:55;;;;;;;;;;;;;;;15.55;59.57;99830.13;215956;1253;73343;-73
2023/04/12 10:10:48;;;;;;;;;;;;;;;15.16;60.12;99828.50;216076;1251;61249;-72
2023/04/12 10:15:42;;;;;;;;;;;;;;;14.84;60.36;99821.49;215987;1251;61310;-73
2023/04/12 10:20:36;;;;;;;;;;;;;;;14.88;60.48;99818.47;216132;1251;61357;-73
2023/04/12 10:25:30;;;;;;;;;;;;;;;15.21;60.08;99816.20;215996;1253;74126;-73
2023/04/12 10:30:23;;;;;;;;;;;;;;;15.69;58.97;99815.55;216026;1252;71384;-72
2023/04/12 10:35:16;;;;;;;;;;;;;;;16.52;57.31;99818.91;216016;1252;61339;-73
2023/04/12 10:40:17;;;;;;;;;;;;;;;18.71;54.92;99811.04;215931;1253;61373;-73
2023/04/12 10:45:32;;;;;;;;;;;;;;;18.00;55.67;99813.10;216020;1253;61330;-73
2023/04/12 10:50:29;;;;;;;;;;;;;;;17.79;55.88;99807.88;216015;1255;73348;-73
2023/04/12 10:55:28;;;;;;;;;;;;;;;17.56;55.10;99817.25;216011;1251;72349;-73
2023/04/12 11:00:21;;;;;;;;;;;;;;;16.98;54.85;99819.04;216052;1253;61204;-73
2023/04/12 11:05:17;;;;;;;;;;;;;;;16.74;54.78;99809.77;215958;1251;61266;-73
2023/04/12 11:10:16;;;;;;;;;;;;;;;16.06;55.34;99802.63;215815;1253;61338;-73
2023/04/12 11:15:12;;;;;;;;;;;;;;;15.59;56.18;99806.29;215796;1251;72918;-73
2023/04/12 11:20:13;;;;;;;;;;;;;;;15.31;56.55;99802.95;216005;1251;70665;-73
2023/04/12 11:25:06;;;;;;;;;;;;;;;16.13;55.94;99791.27;216049;1253;61314;-73
2023/04/12 11:29:59;;;;;;;;;;;;;;;17.92;54.75;99777.88;215997;1253;61361;-72
2023/04/12 11:34:53;;;;;;;;;;;;;;;17.86;54.14;99769.48;216280;1250;61226;-73
2023/04/12 11:39:47;;;;;;;;;;;;;;;18.06;53.61;99778.94;216087;1253;73973;-72
2023/04/12 11:44:40;;;;;;;;;;;;;;;18.75;52.69;99769.14;216205;1252;73447;-73
2023/04/12 11:49:53;;;;;;;;;;;;;;;19.64;52.71;99762.87;216023;1251;61289;-72
2023/04/12 11:54:47;;;;;;;;;;;;;;;20.03;51.85;99759.55;216033;1254;67277;-74
2023/04/12 11:59:40;;;;;;;;;;;;;;;19.92;51.18;99751.34;216053;1253;61217;-73
2023/04/12 12:04:33;;;;;;;;;;;;;;;19.80;51.46;99736.10;216107;1252;61248;-73
2023/04/12 12:09:26;;;;;;;;;;;;;;;19.13;50.11;99735.23;216062;1253;135139;-74
2023/04/12 12:14:23;;;;;;;;;;;;;;;18.26;51.08;99731.52;216253;1251;61143;-73
2023/04/12 12:19:15;;;;;;;;;;;;;;;18.30;51.72;99729.81;216076;1253;64727;-73
2023/04/12 12:24:13;;;;;;;;;;;;;;;18.63;51.93;99720.36;216177;1253;61283;-73
2023/04/12 12:29:08;;;;;;;;;;;;;;;18.74;50.69;99713.20;216094;1251;74615;-73
2023/04/12 12:34:00;;;;;;;;;;;;;;;18.48;50.46;99699.78;216152;1252;72303;-74
2023/04/12 12:39:03;;;;;;;;;;;;;;;18.68;51.62;99691.78;216109;1254;61257;-73
2023/04/12 12:43:55;;;;;;;;;;;;;;;18.84;50.99;99692.85;216240;1252;65644;-74
2023/04/12 12:48:49;;;;;;;;;;;;;;;18.84;50.94;99693.03;216148;1251;61249;-73
2023/04/12 12:53:41;;;;;;;;;;;;;;;19.03;51.07;99686.62;216219;1255;61243;-73
2023/04/12 12:58:35;;;;;;;;;;;;;;;18.98;50.43;99683.97;216047;1253;61328;-73
2023/04/12 13:03:31;;;;;;;;;;;;;;;18.40;49.66;99682.84;216330;1251;61266;-73
2023/04/12 13:08:25;;;;;;;;;;;;;;;17.69;50.10;99676.55;216178;1255;65615;-74
2023/04/12 13:13:20;;;;;;;;;;;;;;;17.71;50.30;99672.29;216095;1255;67707;-72
2023/04/12 13:18:15;;;;;;;;;;;;;;;18.40;50.76;99673.04;216025;1251;74552;-74
2023/04/12 13:23:09;;;;;;;;;;;;;;;19.05;49.77;99671.06;216040;1253;73684;-73
2023/04/12 13:28:02;;;;;;;;;;;;;;;19.43;49.37;99669.02;216109;1253;61237;-74
2023/04/12 13:32:55;;;;;;;;;;;;;;;19.62;48.68;99666.94;216101;1253;61271;-74
2023/04/12 13:37:48;;;;;;;;;;;;;;;19.48;47.22;99661.83;216095;1256;61283;-72
2023/04/12 13:42:40;;;;;;;;;;;;;;;19.00;47.50;99648.08;216155;1251;61238;-74
2023/04/12 13:47:34;;;;;;;;;;;;;;;19.06;48.22;99641.19;216150;1253;61403;-74
2023/04/12 13:52:27;;;;;;;;;;;;;;;18.88;48.20;99639.02;216141;1251;61804;-74
2023/04/12 13:57:20;;;;;;;;;;;;;;;18.95;47.85;99631.21;216197;1255;61230;-74
2023/04/12 14:02:12;;;;;;;;;;;;;;;18.90;47.64;99628.39;216297;1255;61220;-74
2023/04/12 14:07:05;;;;;;;;;;;;;;;18.94;47.17;99626.70;216153;1251;61270;-74
2023/04/12 14:12:00;;;;;;;;;;;;;;;18.91;46.99;99626.95;216119;1256;61362;-75
2023/04/12 14:16:55;;;;;;;;;;;;;;;19.05;47.54;99624.90;216085;1255;61359;-74
2023/04/12 14:21:50;;;;;;;;;;;;;;;19.24;47.93;99628.78;216152;1251;67402;-74
2023/04/12 14:26:44;;;;;;;;;;;;;;;19.23;47.32;99629.54;216177;1255;61241;-76
2023/04/12 14:31:37;;;;;;;;;;;;;;;19.12;46.68;99628.52;216042;1251;74385;-74
2023/04/12 14:36:32;;;;;;;;;;;;;;;18.96;46.08;99628.36;216132;1255;73417;-75
2023/04/12 14:41:25;;;;;;;;;;;;;;;18.68;46.65;99627.70;216284;1251;61282;-74
2023/04/12 14:46:18;;;;;;;;;;;;;;;18.59;46.74;99623.27;216114;1251;67503;-74
2023/04/12 14:51:10;;;;;;;;;;;;;;;18.45;46.83;99623.58;216096;1255;61321;-75
2023/04/12 14:56:03;;;;;;;;;;;;;;;18.32;46.43;99622.58;216147;1255;61511;-74
2023/04/12 15:00:58;;;;;;;;;;;;;;;18.29;47.01;99623.73;216093;1251;61234;-74
2023/04/12 15:05:52;;;;;;;;;;;;;;;18.30;47.05;99621.23;216070;1255;61359;-75
2023/04/12 15:10:45;;;;;;;;;;;;;;;18.33;47.41;99623.78;216108;1251;66721;-74
2023/04/12 15:15:38;;;;;;;;;;;;;;;18.28;46.89;99626.22;215998;1251;61192;-74
2023/04/12 15:20:30;;;;;;;;;;;;;;;18.00;47.08;99629.01;216165;1256;61280;-74
2023/04/12 15:25:24;;;;;;;;;;;;;;;17.36;47.76;99628.25;216076;1256;61261;-74
2023/04/12 15:30:18;;;;;;;;;;;;;;;16.60;48.32;99625.34;215964;1254;61375;-74
2023/04/12 15:35:10;;;;;;;;;;;;;;;16.04;49.05;99632.98;216213;1251;64598;-74
2023/04/12 15:40:12;;;;;;;;;;;;;;;15.67;49.74;99629.55;216120;1256;61244;-75
2023/04/12 15:45:05;;;;;;;;;;;;;;;15.62;50.45;99624.94;216143;1255;72147;-74
2023/04/12 15:49:58;;;;;;;;;;;;;;;15.78;50.69;99622.88;216094;1251;72832;-74
2023/04/12 15:54:51;;;;;;;;;;;;;;;15.89;50.42;99623.34;216240;1255;61226;-75
2023/04/12 15:59:43;;;;;;;;;;;;;;;15.91;50.60;99624.87;216192;1255;61263;-73
2023/04/12 16:04:36;;;;;;;;;;;;;;;15.77;50.74;99620.45;216135;1253;61270;-74
2023/04/12 16:09:32;;;;;;;;;;;;;;;15.61;50.70;99619.20;216179;1251;61355;-74
2023/04/12 16:14:24;;;;;;;;;;;;;;;15.35;51.19;99617.62;216352;1251;72067;-75
2023/04/12 16:19:17;;;;;;;;;;;;;;;15.04;51.90;99615.80;216009;1251;61880;-75
2023/04/12 16:24:11;;;;;;;;;;;;;;;14.83;51.97;99616.52;216030;1251;61268;-74
2023/04/12 16:29:04;;;;;;;;;;;;;;;14.78;52.46;99614.17;216063;1255;61244;-75
2023/04/12 16:33:57;;;;;;;;;;;;;;;14.72;52.47;99609.90;216081;1251;75056;-75
2023/04/12 16:38:53;;;;;;;;;;;;;;;14.61;52.56;99614.61;216068;1255;61231;-75
2023/04/12 16:43:46;;;;;;;;;;;;;;;14.46;52.91;99618.34;216034;1253;61266;-75
2023/04/12 16:48:39;;;;;;;;;;;;;;;14.35;53.45;99618.16;216098;1256;61269;-75
2023/04/12 16:53:32;;;;;;;;;;;;;;;14.24;53.40;99624.45;216037;1251;61243;-75
2023/04/12 16:58:26;;;;;;;;;;;;;;;14.10;53.73;99623.43;215955;1253;61185;-74
2023/04/12 17:03:19;;;;;;;;;;;;;;;13.93;53.91;99632.23;216107;1251;72374;-75
2023/04/12 17:08:14;;;;;;;;;;;;;;;13.76;54.31;99627.77;216074;1253;61308;-75
2023/04/12 17:13:07;;;;;;;;;;;;;;;13.64;54.64;99628.94;216045;1251;67937;-75
2023/04/12 17:18:04;;;;;;;;;;;;;;;13.51;54.98;99633.99;216072;1251;61272;-75
2023/04/12 17:22:57;;;;;;;;;;;;;;;13.35;55.23;99635.92;216071;1251;74281;-75
2023/04/12 17:27:50;;;;;;;;;;;;;;;13.19;55.48;99641.63;216086;1251;73298;-75
2023/04/12 17:32:43;;;;;;;;;;;;;;;13.05;55.79;99644.74;216109;1251;61362;-75
2023/04/12 17:37:37;;;;;;;;;;;;;;;12.91;55.96;99645.05;216198;1251;65773;-75
2023/04/12 17:42:30;;;;;;;;;;;;;;;12.81;56.22;99648.10;216349;1251;61253;-75
2023/04/12 17:47:23;;;;;;;;;;;;;;;12.70;56.49;99652.73;216243;1251;61348;-75
2023/04/12 17:52:16;;;;;;;;;;;;;;;12.58;56.75;99658.04;216281;1251;61259;-74
2023/04/12 17:57:09;;;;;;;;;;;;;;;12.49;57.00;99663.50;216304;1254;61271;-74
2023/04/12 18:02:02;;;;;;;;;;;;;;;12.40;57.35;99669.30;216218;1251;65666;-75
2023/04/12 18:06:56;;;;;;;;;;;;;;;12.35;57.65;99671.77;216294;1256;61253;-75
2023/04/12 18:11:49;;;;;;;;;;;;;;;12.29;57.91;99675.98;216197;1251;74217;-75
2023/04/12 18:16:42;;;;;;;;;;;;;;;12.21;58.04;99681.59;216132;1251;61235;-75
2023/04/12 18:21:35;;;;;;;;;;;;;;;12.13;58.35;99683.89;216198;1251;61205;-75
2023/04/12 18:26:29;;;;;;;;;;;;;;;12.09;58.39;99681.14;216150;1251;61365;-74
2023/04/12 18:31:22;;;;;;;;;;;;;;;12.04;58.87;99682.38;216213;1251;61260;-75
2023/04/12 18:36:15;;;;;;;;;;;;;;;11.99;58.99;99681.20;216262;1251;61328;-75
2023/04/12 18:41:11;;;;;;;;;;;;;;;11.93;59.24;99678.80;216138;1251;61250;-75
2023/04/12 18:46:04;;;;;;;;;;;;;;;11.89;59.61;99680.70;216231;1254;61267;-75
2023/04/12 18:50:58;;;;;;;;;;;;;;;11.85;60.06;99684.01;216212;1251;61321;-75
2023/04/12 18:55:51;;;;;;;;;;;;;;;11.81;60.13;99685.07;216326;1251;61318;-75
2023/04/12 19:00:44;;;;;;;;;;;;;;;11.76;59.91;99687.52;216248;1251;74556;-75
2023/04/12 19:05:38;;;;;;;;;;;;;;;11.71;60.03;99683.89;216226;1251;71070;-73
2023/04/12 19:10:31;;;;;;;;;;;;;;;11.66;60.28;99692.08;216256;1251;61340;-74
2023/04/12 19:15:24;;;;;;;;;;;;;;;11.59;60.66;99693.48;216263;1251;67453;-73
2023/04/12 19:20:17;;;;;;;;;;;;;;;11.51;60.70;99687.78;216154;1251;61233;-73
2023/04/12 19:25:10;;;;;;;;;;;;;;;11.44;60.92;99686.27;216089;1255;61369;-73
2023/04/12 19:30:03;;;;;;;;;;;;;;;11.41;61.34;99680.01;216105;1251;61336;-74
2023/04/12 19:34:56;;;;;;;;;;;;;;;11.38;61.65;99676.02;216127;1251;61368;-74
2023/04/12 19:39:49;;;;;;;;;;;;;;;11.33;61.80;99671.20;216083;1253;61266;-74
2023/04/12 19:44:43;;;;;;;;;;;;;;;11.26;61.99;99665.99;216191;1255;61326;-74
2023/04/12 19:49:36;;;;;;;;;;;;;;;11.11;62.20;99666.04;216161;1250;74353;-73
2023/04/12 19:54:30;;;;;;;;;;;;;;;10.97;62.38;99663.80;216193;1251;71719;-73
2023/04/12 19:59:25;;;;;;;;;;;;;;;10.85;62.76;99654.30;215923;1251;61310;-73
2023/04/12 20:04:20;;;;;;;;;;;;;;;10.73;63.03;99648.05;215688;1253;67955;-74
2023/04/12 20:09:14;;;;;;;;;;;;;;;10.62;63.21;99645.64;216040;1251;61269;-74
2023/04/12 20:14:07;;;;;;;;;;;;;;;10.53;63.35;99643.56;215966;1251;75361;-74
2023/04/12 20:19:03;;;;;;;;;;;;;;;10.40;63.60;99642.35;216090;1251;72363;-73
2023/04/12 20:23:57;;;;;;;;;;;;;;;10.25;63.70;99641.27;216305;1254;61375;-73
2023/04/12 20:28:50;;;;;;;;;;;;;;;10.10;63.80;99644.19;216146;1251;68833;-74
2023/04/12 20:33:43;;;;;;;;;;;;;;;9.91;63.90;99639.46;216231;1251;61269;-73
2023/04/12 20:38:35;;;;;;;;;;;;;;;9.74;64.32;99636.30;216053;1251;61317;-73
2023/04/12 20:43:29;;;;;;;;;;;;;;;9.56;64.44;99628.29;216036;1251;61300;-73
2023/04/12 20:48:23;;;;;;;;;;;;;;;9.38;64.51;99620.08;216119;1252;61356;-73
2023/04/12 20:53:16;;;;;;;;;;;;;;;9.19;64.79;99617.05;216059;1255;65913;-73
2023/04/12 20:58:11;;;;;;;;;;;;;;;9.01;64.99;99611.95;216029;1251;61376;-73
2023/04/12 21:03:04;;;;;;;;;;;;;;;8.83;65.14;99612.36;216290;1253;75393;-74
2023/04/12 21:07:58;;;;;;;;;;;;;;;8.65;65.26;99615.17;216060;1252;72667;-74
2023/04/12 21:12:50;;;;;;;;;;;;;;;8.47;65.52;99619.88;216200;1251;61429;-73
2023/04/12 21:17:45;;;;;;;;;;;;;;;8.37;66.06;99619.59;216108;1251;64760;-74
2023/04/12 21:22:38;;;;;;;;;;;;;;;8.25;66.12;99613.96;216052;1255;61256;-74
2023/04/12 21:27:32;;;;;;;;;;;;;;;8.13;66.36;99618.17;216231;1252;75515;-73
2023/04/12 21:32:25;;;;;;;;;;;;;;;8.01;66.43;99614.44;216243;1252;73503;-73
2023/04/12 21:37:20;;;;;;;;;;;;;;;7.87;66.70;99619.99;216362;1251;61266;-73
2023/04/12 21:42:13;;;;;;;;;;;;;;;7.80;66.87;99623.36;215985;1252;66877;-74
2023/04/12 21:47:06;;;;;;;;;;;;;;;7.70;66.78;99617.55;216308;1253;61352;-74
2023/04/12 21:51:59;;;;;;;;;;;;;;;7.53;66.86;99614.45;216286;1252;61781;-73
2023/04/12 21:56:51;;;;;;;;;;;;;;;7.32;67.01;99617.98;216481;1252;61283;-73
2023/04/12 22:01:44;;;;;;;;;;;;;;;7.20;67.53;99618.70;216628;1251;61361;-74
2023/04/12 22:06:37;;;;;;;;;;;;;;;7.09;67.67;99621.66;216265;1252;61353;-73
2023/04/12 22:11:30;;;;;;;;;;;;;;;6.90;67.87;99615.02;216253;1252;65762;-73
2023/04/12 22:16:23;;;;;;;;;;;;;;;6.84;68.26;99614.06;216406;1251;61311;-73
2023/04/12 22:21:16;;;;;;;;;;;;;;;6.82;68.36;99615.24;216566;1251;61381;-73
2023/04/12 22:26:10;;;;;;;;;;;;;;;6.80;68.34;99611.42;216189;1253;61902;-73
2023/04/12 22:31:02;;;;;;;;;;;;;;;6.73;68.25;99604.95;216351;1251;61250;-73
2023/04/12 22:35:55;;;;;;;;;;;;;;;6.62;68.27;99607.02;216357;1253;61334;-73
2023/04/12 22:40:48;;;;;;;;;;;;;;;6.51;68.46;99596.01;216038;1251;61376;-73
2023/04/12 22:45:41;;;;;;;;;;;;;;;6.42;68.32;99587.63;216094;1253;61859;-73
2023/04/12 22:50:34;;;;;;;;;;;;;;;6.29;68.60;99577.42;216113;1251;61346;-73
2023/04/12 22:55:27;;;;;;;;;;;;;;;6.22;68.84;99570.08;216080;1251;61292;-73
2023/04/12 23:00:23;;;;;;;;;;;;;;;6.14;68.78;99562.90;216192;1251;61356;-73
2023/04/12 23:05:18;;;;;;;;;;;;;;;6.08;69.03;99555.25;216086;1254;75420;-73
2023/04/12 23:10:11;;;;;;;;;;;;;;;6.02;69.13;99552.05;216212;1251;73479;-73
2023/04/12 23:15:05;;;;;;;;;;;;;;;5.93;69.27;99551.35;216098;1251;61311;-73
2023/04/12 23:20:00;;;;;;;;;;;;;;;5.90;69.35;99551.13;216053;1251;65933;-73
2023/04/12 23:24:53;;;;;;;;;;;;;;;5.84;69.38;99543.61;216220;1250;61254;-73
2023/04/12 23:29:46;;;;;;;;;;;;;;;5.74;69.43;99544.45;216388;1251;61243;-73
2023/04/12 23:34:39;;;;;;;;;;;;;;;5.63;69.55;99538.27;216342;1251;72574;-73
2023/04/12 23:39:33;;;;;;;;;;;;;;;5.56;69.53;99536.08;216300;1251;61199;-73
2023/04/12 23:44:26;;;;;;;;;;;;;;;5.49;69.61;99528.55;216360;1251;67006;-73
2023/04/12 23:49:19;;;;;;;;;;;;;;;5.42;69.66;99525.16;216337;1255;61366;-73
2023/04/12 23:54:12;;;;;;;;;;;;;;;5.35;69.88;99518.69;216314;1251;61255;-73
2023/04/12 23:59:04;;;;;;;;;;;;;;;5.26;69.82;99514.56;216231;1253;61205;-73
